sensor_id;sensor_type;location;lat;lon;timestamp;P1;durP1;ratioP1;P2;durP2;ratioP2
13605;SDS011;6874;52.084;5.090;2022-09-01T00:01:13;72.30;;;69.93;;
13605;SDS011;6874;52.084;5.090;2022-09-01T00:03:45;75.00;;;72.53;;
13605;SDS011;6874;52.084;5.090;2022-09-01T00:06:13;81.17;;;78.50;;
13605;SDS011;6874;52.084;5.090;2022-09-01T00:08:46;73.77;;;71.40;;
13605;SDS011;6874;52.084;5.090;2022-09-01T00:11:13;69.33;;;67.07;;
13605;SDS011;6874;52.084;5.090;2022-09-01T00:13:38;63.97;;;61.87;;
13605;SDS011;6874;52.084;5.090;2022-09-01T00:16:04;67.23;;;65.03;;
13605;SDS011;6874;52.084;5.090;2022-09-01T00:18:30;63.33;;;61.27;;
13605;SDS011;6874;52.084;5.090;2022-09-01T00:20:56;67.93;;;65.73;;
13605;SDS011;6874;52.084;5.090;2022-09-01T00:23:24;71.57;;;69.27;;
13605;SDS011;6874;52.084;5.090;2022-09-01T00:25:51;68.30;;;66.10;;
13605;SDS011;6874;52.084;5.090;2022-09-01T00:28:16;70.43;;;68.17;;
13605;SDS011;6874;52.084;5.090;2022-09-01T00:30:42;77.63;;;75.07;;
13605;SDS011;6874;52.084;5.090;2022-09-01T00:33:07;80.43;;;77.80;;
13605;SDS011;6874;52.084;5.090;2022-09-01T00:35:34;83.33;;;80.60;;
13605;SDS011;6874;52.084;5.090;2022-09-01T00:38:00;86.67;;;83.83;;
13605;SDS011;6874;52.084;5.090;2022-09-01T00:40:25;83.33;;;80.60;;
13605;SDS011;6874;52.084;5.090;2022-09-01T00:42:51;82.30;;;79.60;;
13605;SDS011;6874;52.084;5.090;2022-09-01T00:45:18;74.17;;;71.73;;
13605;SDS011;6874;52.084;5.090;2022-09-01T00:47:45;73.23;;;70.83;;
13605;SDS011;6874;52.084;5.090;2022-09-01T00:50:12;75.03;;;72.53;;
13605;SDS011;6874;52.084;5.090;2022-09-01T00:52:43;73.20;;;70.80;;
13605;SDS011;6874;52.084;5.090;2022-09-01T00:55:22;70.47;;;68.17;;
13605;SDS011;6874;52.084;5.090;2022-09-01T00:57:51;59.90;;;57.93;;
13605;SDS011;6874;52.084;5.090;2022-09-01T01:00:18;63.87;;;61.77;;
13605;SDS011;6874;52.084;5.090;2022-09-01T01:02:47;66.17;;;64.00;;
13605;SDS011;6874;52.084;5.090;2022-09-01T01:05:14;68.43;;;66.17;;
13605;SDS011;6874;52.084;5.090;2022-09-01T01:07:40;67.40;;;65.17;;
13605;SDS011;6874;52.084;5.090;2022-09-01T01:10:09;70.07;;;67.73;;
13605;SDS011;6874;52.084;5.090;2022-09-01T01:12:37;68.43;;;66.17;;
13605;SDS011;6874;52.084;5.090;2022-09-01T01:15:05;77.30;;;74.73;;
13605;SDS011;6874;52.084;5.090;2022-09-01T01:17:32;79.27;;;76.63;;
13605;SDS011;6874;52.084;5.090;2022-09-01T01:19:57;81.43;;;78.73;;
13605;SDS011;6874;52.084;5.090;2022-09-01T01:22:56;81.43;;;78.73;;
13605;SDS011;6874;52.084;5.090;2022-09-01T01:25:37;75.83;;;73.30;;
13605;SDS011;6874;52.084;5.090;2022-09-01T01:28:11;88.13;;;85.20;;
13605;SDS011;6874;52.084;5.090;2022-09-01T01:30:41;88.47;;;85.50;;
13605;SDS011;6874;52.084;5.090;2022-09-01T01:33:13;96.00;;;92.77;;
13605;SDS011;6874;52.084;5.090;2022-09-01T01:35:39;92.80;;;89.67;;
13605;SDS011;6874;52.084;5.090;2022-09-01T01:38:05;99.97;;;96.60;;
13605;SDS011;6874;52.084;5.090;2022-09-01T01:40:32;95.63;;;92.43;;
13605;SDS011;6874;52.084;5.090;2022-09-01T01:42:58;99.43;;;96.03;;
13605;SDS011;6874;52.084;5.090;2022-09-01T01:45:25;103.97;;;100.40;;
13605;SDS011;6874;52.084;5.090;2022-09-01T01:47:52;109.87;;;106.10;;
13605;SDS011;6874;52.084;5.090;2022-09-01T01:50:22;111.10;;;107.30;;
13605;SDS011;6874;52.084;5.090;2022-09-01T01:52:57;113.73;;;109.87;;
13605;SDS011;6874;52.084;5.090;2022-09-01T01:55:24;111.10;;;107.33;;
13605;SDS011;6874;52.084;5.090;2022-09-01T01:57:51;119.37;;;115.27;;
13605;SDS011;6874;52.084;5.090;2022-09-01T02:00:19;120.17;;;116.07;;
13605;SDS011;6874;52.084;5.090;2022-09-01T02:02:47;124.70;;;120.43;;
13605;SDS011;6874;52.084;5.090;2022-09-01T02:05:18;122.63;;;118.43;;
13605;SDS011;6874;52.084;5.090;2022-09-01T02:07:48;125.37;;;121.03;;
13605;SDS011;6874;52.084;5.090;2022-09-01T02:10:20;121.93;;;117.77;;
13605;SDS011;6874;52.084;5.090;2022-09-01T02:12:47;122.80;;;118.60;;
13605;SDS011;6874;52.084;5.090;2022-09-01T02:15:13;117.57;;;113.53;;
13605;SDS011;6874;52.084;5.090;2022-09-01T02:17:39;128.40;;;123.97;;
13605;SDS011;6874;52.084;5.090;2022-09-01T02:20:07;125.90;;;121.57;;
13605;SDS011;6874;52.084;5.090;2022-09-01T02:22:33;126.50;;;122.13;;
13605;SDS011;6874;52.084;5.090;2022-09-01T02:25:02;121.77;;;117.57;;
13605;SDS011;6874;52.084;5.090;2022-09-01T02:27:28;123.23;;;119.00;;
13605;SDS011;6874;52.084;5.090;2022-09-01T02:29:54;113.60;;;109.70;;
13605;SDS011;6874;52.084;5.090;2022-09-01T02:32:20;126.27;;;121.93;;
13605;SDS011;6874;52.084;5.090;2022-09-01T02:34:47;120.87;;;116.73;;
13605;SDS011;6874;52.084;5.090;2022-09-01T02:37:18;119.57;;;115.47;;
13605;SDS011;6874;52.084;5.090;2022-09-01T02:39:49;120.87;;;116.70;;
13605;SDS011;6874;52.084;5.090;2022-09-01T02:42:21;118.23;;;114.17;;
13605;SDS011;6874;52.084;5.090;2022-09-01T02:44:50;114.37;;;110.43;;
13605;SDS011;6874;52.084;5.090;2022-09-01T02:47:17;125.33;;;121.00;;
13605;SDS011;6874;52.084;5.090;2022-09-01T02:49:42;121.53;;;117.30;;
13605;SDS011;6874;52.084;5.090;2022-09-01T02:52:08;125.57;;;121.23;;
13605;SDS011;6874;52.084;5.090;2022-09-01T02:54:34;120.20;;;116.03;;
13605;SDS011;6874;52.084;5.090;2022-09-01T02:57:00;120.40;;;116.23;;
13605;SDS011;6874;52.084;5.090;2022-09-01T02:59:27;122.23;;;118.00;;
13605;SDS011;6874;52.084;5.090;2022-09-01T03:01:54;128.80;;;124.37;;
13605;SDS011;6874;52.084;5.090;2022-09-01T03:04:21;125.10;;;120.77;;
13605;SDS011;6874;52.084;5.090;2022-09-01T03:06:48;123.80;;;119.53;;
13605;SDS011;6874;52.084;5.090;2022-09-01T03:09:17;126.13;;;121.73;;
13605;SDS011;6874;52.084;5.090;2022-09-01T03:11:44;122.20;;;118.00;;
13605;SDS011;6874;52.084;5.090;2022-09-01T03:14:11;129.53;;;125.07;;
13605;SDS011;6874;52.084;5.090;2022-09-01T03:16:37;127.33;;;122.93;;
13605;SDS011;6874;52.084;5.090;2022-09-01T03:19:03;119.77;;;115.67;;
13605;SDS011;6874;52.084;5.090;2022-09-01T03:21:33;120.53;;;116.43;;
13605;SDS011;6874;52.084;5.090;2022-09-01T03:23:59;128.87;;;124.43;;
13605;SDS011;6874;52.084;5.090;2022-09-01T03:26:27;122.93;;;118.73;;
13605;SDS011;6874;52.084;5.090;2022-09-01T03:28:54;123.73;;;119.47;;
13605;SDS011;6874;52.084;5.090;2022-09-01T03:31:20;124.87;;;120.57;;
13605;SDS011;6874;52.084;5.090;2022-09-01T03:33:46;125.10;;;120.80;;
13605;SDS011;6874;52.084;5.090;2022-09-01T03:36:12;127.80;;;123.40;;
13605;SDS011;6874;52.084;5.090;2022-09-01T03:38:43;133.17;;;128.53;;
13605;SDS011;6874;52.084;5.090;2022-09-01T03:41:13;132.63;;;128.03;;
13605;SDS011;6874;52.084;5.090;2022-09-01T03:43:42;131.03;;;126.53;;
13605;SDS011;6874;52.084;5.090;2022-09-01T03:46:08;130.20;;;125.67;;
13605;SDS011;6874;52.084;5.090;2022-09-01T03:48:36;130.10;;;125.60;;
13605;SDS011;6874;52.084;5.090;2022-09-01T03:51:03;129.87;;;125.37;;
13605;SDS011;6874;52.084;5.090;2022-09-01T03:53:33;129.20;;;124.70;;
13605;SDS011;6874;52.084;5.090;2022-09-01T03:56:01;130.00;;;125.50;;
13605;SDS011;6874;52.084;5.090;2022-09-01T03:58:28;126.00;;;121.63;;
13605;SDS011;6874;52.084;5.090;2022-09-01T04:00:54;133.13;;;128.50;;
13605;SDS011;6874;52.084;5.090;2022-09-01T04:03:23;131.47;;;126.90;;
13605;SDS011;6874;52.084;5.090;2022-09-01T04:05:50;130.33;;;125.83;;
13605;SDS011;6874;52.084;5.090;2022-09-01T04:08:18;132.50;;;127.90;;
13605;SDS011;6874;52.084;5.090;2022-09-01T04:10:46;122.27;;;118.00;;
13605;SDS011;6874;52.084;5.090;2022-09-01T04:13:18;127.10;;;122.67;;
13605;SDS011;6874;52.084;5.090;2022-09-01T04:15:50;126.37;;;121.93;;
13605;SDS011;6874;52.084;5.090;2022-09-01T04:18:16;121.07;;;116.80;;
13605;SDS011;6874;52.084;5.090;2022-09-01T04:20:52;118.47;;;114.33;;
13605;SDS011;6874;52.084;5.090;2022-09-01T04:23:28;118.97;;;114.87;;
13605;SDS011;6874;52.084;5.090;2022-09-01T04:25:59;114.30;;;110.30;;
13605;SDS011;6874;52.084;5.090;2022-09-01T04:28:33;114.77;;;110.77;;
13605;SDS011;6874;52.084;5.090;2022-09-01T04:31:20;113.30;;;109.30;;
13605;SDS011;6874;52.084;5.090;2022-09-01T04:33:47;119.47;;;115.30;;
13605;SDS011;6874;52.084;5.090;2022-09-01T04:36:23;112.90;;;108.93;;
13605;SDS011;6874;52.084;5.090;2022-09-01T04:38:52;113.27;;;109.30;;
13605;SDS011;6874;52.084;5.090;2022-09-01T04:41:23;119.37;;;115.17;;
13605;SDS011;6874;52.084;5.090;2022-09-01T04:43:50;115.17;;;111.13;;
13605;SDS011;6874;52.084;5.090;2022-09-01T04:46:20;116.40;;;112.30;;
13605;SDS011;6874;52.084;5.090;2022-09-01T04:48:46;111.33;;;107.43;;
13605;SDS011;6874;52.084;5.090;2022-09-01T04:51:15;112.73;;;108.77;;
13605;SDS011;6874;52.084;5.090;2022-09-01T04:53:41;114.57;;;110.50;;
13605;SDS011;6874;52.084;5.090;2022-09-01T04:56:13;113.83;;;109.83;;
13605;SDS011;6874;52.084;5.090;2022-09-01T04:58:43;113.33;;;109.37;;
13605;SDS011;6874;52.084;5.090;2022-09-01T05:01:13;116.40;;;112.33;;
13605;SDS011;6874;52.084;5.090;2022-09-01T05:03:43;108.60;;;104.77;;
13605;SDS011;6874;52.084;5.090;2022-09-01T05:06:14;116.17;;;112.10;;
13605;SDS011;6874;52.084;5.090;2022-09-01T05:08:41;113.90;;;109.87;;
13605;SDS011;6874;52.084;5.090;2022-09-01T05:11:09;109.00;;;105.17;;
13605;SDS011;6874;52.084;5.090;2022-09-01T05:13:36;119.07;;;114.83;;
13605;SDS011;6874;52.084;5.090;2022-09-01T05:16:06;115.17;;;111.10;;
13605;SDS011;6874;52.084;5.090;2022-09-01T05:18:40;111.83;;;107.90;;
13605;SDS011;6874;52.084;5.090;2022-09-01T05:21:09;107.57;;;103.77;;
13605;SDS011;6874;52.084;5.090;2022-09-01T05:23:38;111.93;;;107.93;;
13605;SDS011;6874;52.084;5.090;2022-09-01T05:26:05;113.47;;;109.47;;
13605;SDS011;6874;52.084;5.090;2022-09-01T05:28:40;111.57;;;107.63;;
13605;SDS011;6874;52.084;5.090;2022-09-01T05:31:07;109.27;;;105.40;;
13605;SDS011;6874;52.084;5.090;2022-09-01T05:33:34;121.63;;;117.27;;
13605;SDS011;6874;52.084;5.090;2022-09-01T05:36:01;123.07;;;118.70;;
13605;SDS011;6874;52.084;5.090;2022-09-01T05:38:32;115.33;;;111.27;;
13605;SDS011;6874;52.084;5.090;2022-09-01T05:40:59;113.63;;;109.63;;
13605;SDS011;6874;52.084;5.090;2022-09-01T05:43:28;121.87;;;117.60;;
13605;SDS011;6874;52.084;5.090;2022-09-01T05:45:55;111.23;;;107.27;;
13605;SDS011;6874;52.084;5.090;2022-09-01T05:48:22;119.30;;;115.03;;
13605;SDS011;6874;52.084;5.090;2022-09-01T05:50:48;114.03;;;109.93;;
13605;SDS011;6874;52.084;5.090;2022-09-01T05:53:22;112.93;;;108.93;;
13605;SDS011;6874;52.084;5.090;2022-09-01T05:55:50;108.30;;;104.43;;
13605;SDS011;6874;52.084;5.090;2022-09-01T05:58:21;111.83;;;107.87;;
13605;SDS011;6874;52.084;5.090;2022-09-01T06:00:49;110.60;;;106.60;;
13605;SDS011;6874;52.084;5.090;2022-09-01T06:03:17;110.67;;;106.73;;
13605;SDS011;6874;52.084;5.090;2022-09-01T06:05:43;113.77;;;109.70;;
13605;SDS011;6874;52.084;5.090;2022-09-01T06:08:16;108.73;;;104.83;;
13605;SDS011;6874;52.084;5.090;2022-09-01T06:10:45;104.80;;;101.03;;
13605;SDS011;6874;52.084;5.090;2022-09-01T06:13:14;111.80;;;107.80;;
13605;SDS011;6874;52.084;5.090;2022-09-01T06:15:41;113.40;;;109.30;;
13605;SDS011;6874;52.084;5.090;2022-09-01T06:18:09;110.03;;;106.10;;
13605;SDS011;6874;52.084;5.090;2022-09-01T06:20:40;106.03;;;102.23;;
13605;SDS011;6874;52.084;5.090;2022-09-01T06:23:07;111.13;;;107.03;;
13605;SDS011;6874;52.084;5.090;2022-09-01T06:25:37;107.83;;;103.97;;
13605;SDS011;6874;52.084;5.090;2022-09-01T06:28:03;106.43;;;102.57;;
13605;SDS011;6874;52.084;5.090;2022-09-01T06:30:30;113.07;;;108.93;;
13605;SDS011;6874;52.084;5.090;2022-09-01T06:33:00;105.37;;;101.57;;
13605;SDS011;6874;52.084;5.090;2022-09-01T06:35:29;109.60;;;105.67;;
13605;SDS011;6874;52.084;5.090;2022-09-01T06:37:56;113.53;;;109.43;;
13605;SDS011;6874;52.084;5.090;2022-09-01T06:40:22;111.90;;;107.90;;
13605;SDS011;6874;52.084;5.090;2022-09-01T06:42:50;107.13;;;103.27;;
13605;SDS011;6874;52.084;5.090;2022-09-01T06:45:17;108.07;;;104.17;;
13605;SDS011;6874;52.084;5.090;2022-09-01T06:47:45;104.67;;;100.90;;
13605;SDS011;6874;52.084;5.090;2022-09-01T06:50:13;106.33;;;102.50;;
13605;SDS011;6874;52.084;5.090;2022-09-01T06:52:43;101.97;;;98.27;;
13605;SDS011;6874;52.084;5.090;2022-09-01T06:55:11;104.87;;;101.07;;
13605;SDS011;6874;52.084;5.090;2022-09-01T07:02:44;105.00;;;101.20;;
13605;SDS011;6874;52.084;5.090;2022-09-01T07:05:10;105.90;;;102.07;;
13605;SDS011;6874;52.084;5.090;2022-09-01T07:07:36;100.73;;;97.10;;
13605;SDS011;6874;52.084;5.090;2022-09-01T07:10:02;109.27;;;105.30;;
13605;SDS011;6874;52.084;5.090;2022-09-01T07:12:29;104.97;;;101.20;;
13605;SDS011;6874;52.084;5.090;2022-09-01T07:14:56;111.17;;;107.13;;
13605;SDS011;6874;52.084;5.090;2022-09-01T07:17:23;102.50;;;98.80;;
13605;SDS011;6874;52.084;5.090;2022-09-01T07:19:49;112.00;;;107.93;;
13605;SDS011;6874;52.084;5.090;2022-09-01T07:22:15;107.20;;;103.30;;
13605;SDS011;6874;52.084;5.090;2022-09-01T07:24:40;109.20;;;105.27;;
13605;SDS011;6874;52.084;5.090;2022-09-01T07:27:06;107.80;;;103.90;;
13605;SDS011;6874;52.084;5.090;2022-09-01T07:29:33;107.53;;;103.63;;
13605;SDS011;6874;52.084;5.090;2022-09-01T07:31:59;106.50;;;102.63;;
13605;SDS011;6874;52.084;5.090;2022-09-01T07:34:25;110.07;;;106.10;;
13605;SDS011;6874;52.084;5.090;2022-09-01T07:36:52;110.60;;;106.67;;
13605;SDS011;6874;52.084;5.090;2022-09-01T07:39:20;109.83;;;105.83;;
13605;SDS011;6874;52.084;5.090;2022-09-01T07:41:46;117.43;;;113.17;;
13605;SDS011;6874;52.084;5.090;2022-09-01T07:44:12;122.80;;;118.30;;
13605;SDS011;6874;52.084;5.090;2022-09-01T07:46:39;118.50;;;114.20;;
13605;SDS011;6874;52.084;5.090;2022-09-01T07:49:05;128.33;;;123.77;;
13605;SDS011;6874;52.084;5.090;2022-09-01T07:51:32;133.60;;;128.80;;
13605;SDS011;6874;52.084;5.090;2022-09-01T07:53:58;131.53;;;126.83;;
13605;SDS011;6874;52.084;5.090;2022-09-01T07:56:26;133.67;;;128.90;;
13605;SDS011;6874;52.084;5.090;2022-09-01T07:58:54;133.87;;;129.10;;
13605;SDS011;6874;52.084;5.090;2022-09-01T08:01:23;127.87;;;123.27;;
13605;SDS011;6874;52.084;5.090;2022-09-01T08:03:51;132.97;;;128.20;;
13605;SDS011;6874;52.084;5.090;2022-09-01T08:06:20;132.87;;;128.10;;
13605;SDS011;6874;52.084;5.090;2022-09-01T08:08:55;128.77;;;124.17;;
13605;SDS011;6874;52.084;5.090;2022-09-01T08:11:23;133.77;;;129.03;;
13605;SDS011;6874;52.084;5.090;2022-09-01T08:13:53;133.57;;;128.77;;
13605;SDS011;6874;52.084;5.090;2022-09-01T08:16:22;126.37;;;121.87;;
13605;SDS011;6874;52.084;5.090;2022-09-01T08:18:49;129.97;;;125.37;;
13605;SDS011;6874;52.084;5.090;2022-09-01T08:23:45;129.27;;;124.67;;
13605;SDS011;6874;52.084;5.090;2022-09-01T08:26:12;127.23;;;122.67;;
13605;SDS011;6874;52.084;5.090;2022-09-01T08:28:41;123.90;;;119.47;;
13605;SDS011;6874;52.084;5.090;2022-09-01T08:31:07;132.17;;;127.43;;
13605;SDS011;6874;52.084;5.090;2022-09-01T08:33:34;127.77;;;123.23;;
13605;SDS011;6874;52.084;5.090;2022-09-01T08:36:06;126.50;;;122.00;;
13605;SDS011;6874;52.084;5.090;2022-09-01T08:38:33;128.07;;;123.53;;
13605;SDS011;6874;52.084;5.090;2022-09-01T08:40:59;130.20;;;125.53;;
13605;SDS011;6874;52.084;5.090;2022-09-01T08:46:17;125.03;;;120.70;;
13605;SDS011;6874;52.084;5.090;2022-09-01T08:48:50;125.73;;;121.33;;
13605;SDS011;6874;52.084;5.090;2022-09-01T08:51:20;129.43;;;124.90;;
13605;SDS011;6874;52.084;5.090;2022-09-01T08:54:20;119.00;;;114.87;;
13605;SDS011;6874;52.084;5.090;2022-09-01T08:56:49;121.60;;;117.40;;
13605;SDS011;6874;52.084;5.090;2022-09-01T08:59:18;135.33;;;130.63;;
13605;SDS011;6874;52.084;5.090;2022-09-01T09:01:50;130.97;;;126.43;;
13605;SDS011;6874;52.084;5.090;2022-09-01T09:04:49;134.57;;;129.87;;
13605;SDS011;6874;52.084;5.090;2022-09-01T09:10:16;137.67;;;133.00;;
13605;SDS011;6874;52.084;5.090;2022-09-01T09:13:09;141.70;;;136.87;;
13605;SDS011;6874;52.084;5.090;2022-09-01T09:16:05;140.20;;;135.50;;
13605;SDS011;6874;52.084;5.090;2022-09-01T09:21:20;145.57;;;140.67;;
13605;SDS011;6874;52.084;5.090;2022-09-01T09:24:22;153.70;;;148.50;;
13605;SDS011;6874;52.084;5.090;2022-09-01T09:27:21;152.83;;;147.67;;
13605;SDS011;6874;52.084;5.090;2022-09-01T09:29:54;160.53;;;155.07;;
13605;SDS011;6874;52.084;5.090;2022-09-01T09:32:24;182.30;;;176.10;;
13605;SDS011;6874;52.084;5.090;2022-09-01T09:35:22;176.83;;;170.73;;
13605;SDS011;6874;52.084;5.090;2022-09-01T09:37:56;178.83;;;172.63;;
13605;SDS011;6874;52.084;5.090;2022-09-01T09:41:15;173.47;;;167.47;;
13605;SDS011;6874;52.084;5.090;2022-09-01T09:43:47;185.67;;;179.23;;
13605;SDS011;6874;52.084;5.090;2022-09-01T09:46:27;190.00;;;183.37;;
13605;SDS011;6874;52.084;5.090;2022-09-01T09:49:19;195.97;;;189.17;;
13605;SDS011;6874;52.084;5.090;2022-09-01T09:51:56;194.77;;;188.00;;
13605;SDS011;6874;52.084;5.090;2022-09-01T09:54:27;189.93;;;183.37;;
13605;SDS011;6874;52.084;5.090;2022-09-01T10:02:51;211.47;;;204.17;;
13605;SDS011;6874;52.084;5.090;2022-09-01T10:05:22;243.33;;;234.87;;
13605;SDS011;6874;52.084;5.090;2022-09-01T10:07:54;272.23;;;262.73;;
13605;SDS011;6874;52.084;5.090;2022-09-01T10:13:18;336.77;;;324.77;;
13605;SDS011;6874;52.084;5.090;2022-09-01T10:15:47;352.10;;;339.30;;
13605;SDS011;6874;52.084;5.090;2022-09-01T10:18:22;357.03;;;344.00;;
13605;SDS011;6874;52.084;5.090;2022-09-01T10:21:09;355.80;;;342.97;;
13605;SDS011;6874;52.084;5.090;2022-09-01T10:23:36;330.80;;;319.13;;
13605;SDS011;6874;52.084;5.090;2022-09-01T10:26:36;285.03;;;275.60;;
13605;SDS011;6874;52.084;5.090;2022-09-01T10:29:11;273.10;;;264.30;;
13605;SDS011;6874;52.084;5.090;2022-09-01T10:31:44;277.90;;;268.90;;
13605;SDS011;6874;52.084;5.090;2022-09-01T10:34:12;294.07;;;284.33;;
13605;SDS011;6874;52.084;5.090;2022-09-01T10:36:41;303.33;;;293.00;;
13605;SDS011;6874;52.084;5.090;2022-09-01T10:39:09;303.43;;;292.73;;
13605;SDS011;6874;52.084;5.090;2022-09-01T10:41:58;281.80;;;272.10;;
13605;SDS011;6874;52.084;5.090;2022-09-01T10:47:09;125.70;;;121.53;;
13605;SDS011;6874;52.084;5.090;2022-09-01T10:50:00;124.00;;;119.90;;
13605;SDS011;6874;52.084;5.090;2022-09-01T10:55:15;150.57;;;145.33;;
13605;SDS011;6874;52.084;5.090;2022-09-01T10:58:02;164.77;;;159.00;;
13605;SDS011;6874;52.084;5.090;2022-09-01T11:08:22;289.73;;;278.83;;
13605;SDS011;6874;52.084;5.090;2022-09-01T11:11:24;318.57;;;306.30;;
13605;SDS011;6874;52.084;5.090;2022-09-01T11:14:18;299.20;;;287.80;;
13605;SDS011;6874;52.084;5.090;2022-09-01T11:19:37;260.33;;;250.63;;
13605;SDS011;6874;52.084;5.090;2022-09-01T11:30:48;147.53;;;142.20;;
13605;SDS011;6874;52.084;5.090;2022-09-01T11:39:08;183.50;;;177.20;;
13605;SDS011;6874;52.084;5.090;2022-09-01T11:42:02;179.60;;;173.50;;
13605;SDS011;6874;52.084;5.090;2022-09-01T11:47:27;282.50;;;272.80;;
13605;SDS011;6874;52.084;5.090;2022-09-01T11:49:58;331.33;;;319.80;;
13605;SDS011;6874;52.084;5.090;2022-09-01T11:52:30;342.97;;;331.00;;
13605;SDS011;6874;52.084;5.090;2022-09-01T11:55:00;314.93;;;304.07;;
13605;SDS011;6874;52.084;5.090;2022-09-01T11:57:31;316.83;;;306.07;;
13605;SDS011;6874;52.084;5.090;2022-09-01T12:00:06;325.70;;;314.67;;
13605;SDS011;6874;52.084;5.090;2022-09-01T12:02:35;331.07;;;319.93;;
13605;SDS011;6874;52.084;5.090;2022-09-01T12:07:55;363.93;;;351.37;;
13605;SDS011;6874;52.084;5.090;2022-09-01T12:10:31;399.40;;;385.33;;
13605;SDS011;6874;52.084;5.090;2022-09-01T12:13:17;410.53;;;395.83;;
13605;SDS011;6874;52.084;5.090;2022-09-01T12:15:51;378.43;;;365.13;;
13605;SDS011;6874;52.084;5.090;2022-09-01T12:18:21;397.77;;;383.63;;
13605;SDS011;6874;52.084;5.090;2022-09-01T12:20:52;402.17;;;387.83;;
13605;SDS011;6874;52.084;5.090;2022-09-01T12:23:31;409.30;;;394.57;;
13605;SDS011;6874;52.084;5.090;2022-09-01T12:26:02;407.97;;;393.23;;
13605;SDS011;6874;52.084;5.090;2022-09-01T12:28:38;399.63;;;385.27;;
13605;SDS011;6874;52.084;5.090;2022-09-01T12:31:06;407.97;;;392.77;;
13605;SDS011;6874;52.084;5.090;2022-09-01T12:33:38;437.90;;;420.80;;
13605;SDS011;6874;52.084;5.090;2022-09-01T12:38:50;432.20;;;415.07;;
13605;SDS011;6874;52.084;5.090;2022-09-01T12:41:31;444.23;;;426.80;;
13605;SDS011;6874;52.084;5.090;2022-09-01T12:46:50;464.37;;;446.13;;
13605;SDS011;6874;52.084;5.090;2022-09-01T12:49:18;484.93;;;465.67;;
13605;SDS011;6874;52.084;5.090;2022-09-01T12:51:46;495.37;;;475.67;;
13605;SDS011;6874;52.084;5.090;2022-09-01T12:54:12;479.07;;;459.53;;
13605;SDS011;6874;52.084;5.090;2022-09-01T12:56:39;497.03;;;476.90;;
13605;SDS011;6874;52.084;5.090;2022-09-01T12:59:09;494.40;;;474.27;;
13605;SDS011;6874;52.084;5.090;2022-09-01T13:01:39;456.97;;;438.60;;
13605;SDS011;6874;52.084;5.090;2022-09-01T13:06:55;397.37;;;382.47;;
13605;SDS011;6874;52.084;5.090;2022-09-01T13:09:27;407.67;;;392.27;;
13605;SDS011;6874;52.084;5.090;2022-09-01T13:12:07;408.57;;;392.90;;
13605;SDS011;6874;52.084;5.090;2022-09-01T13:14:43;387.93;;;373.43;;
13605;SDS011;6874;52.084;5.090;2022-09-01T13:17:10;386.73;;;372.43;;
13605;SDS011;6874;52.084;5.090;2022-09-01T13:19:36;371.93;;;358.30;;
13605;SDS011;6874;52.084;5.090;2022-09-01T13:22:03;362.93;;;349.73;;
13605;SDS011;6874;52.084;5.090;2022-09-01T13:24:29;344.33;;;332.17;;
13605;SDS011;6874;52.084;5.090;2022-09-01T13:26:54;282.93;;;273.37;;
13605;SDS011;6874;52.084;5.090;2022-09-01T13:29:21;223.87;;;216.70;;
13605;SDS011;6874;52.084;5.090;2022-09-01T13:31:47;170.17;;;164.77;;
13605;SDS011;6874;52.084;5.090;2022-09-01T13:34:12;163.23;;;158.03;;
13605;SDS011;6874;52.084;5.090;2022-09-01T13:36:38;158.53;;;153.43;;
13605;SDS011;6874;52.084;5.090;2022-09-01T13:39:04;173.57;;;168.03;;
13605;SDS011;6874;52.084;5.090;2022-09-01T13:41:30;184.53;;;178.63;;
13605;SDS011;6874;52.084;5.090;2022-09-01T13:43:56;175.80;;;170.13;;
13605;SDS011;6874;52.084;5.090;2022-09-01T13:46:21;186.07;;;180.17;;
13605;SDS011;6874;52.084;5.090;2022-09-01T13:48:47;213.77;;;207.03;;
13605;SDS011;6874;52.084;5.090;2022-09-01T13:51:22;221.20;;;214.20;;
13605;SDS011;6874;52.084;5.090;2022-09-01T13:53:52;191.87;;;185.73;;
13605;SDS011;6874;52.084;5.090;2022-09-01T13:56:18;205.23;;;198.73;;
13605;SDS011;6874;52.084;5.090;2022-09-01T13:58:43;217.40;;;210.50;;
13605;SDS011;6874;52.084;5.090;2022-09-01T14:01:09;221.83;;;214.83;;
13605;SDS011;6874;52.084;5.090;2022-09-01T14:03:35;204.60;;;198.07;;
13605;SDS011;6874;52.084;5.090;2022-09-01T14:06:01;185.50;;;179.57;;
13605;SDS011;6874;52.084;5.090;2022-09-01T14:08:27;183.87;;;178.00;;
13605;SDS011;6874;52.084;5.090;2022-09-01T14:10:52;183.40;;;177.57;;
13605;SDS011;6874;52.084;5.090;2022-09-01T14:13:19;192.97;;;186.87;;
13605;SDS011;6874;52.084;5.090;2022-09-01T14:15:46;185.27;;;179.40;;
13605;SDS011;6874;52.084;5.090;2022-09-01T14:18:13;205.73;;;199.23;;
13605;SDS011;6874;52.084;5.090;2022-09-01T14:20:41;198.07;;;191.77;;
13605;SDS011;6874;52.084;5.090;2022-09-01T14:23:08;188.40;;;182.43;;
13605;SDS011;6874;52.084;5.090;2022-09-01T14:25:35;192.20;;;186.17;;
13605;SDS011;6874;52.084;5.090;2022-09-01T14:28:02;211.20;;;204.70;;
13605;SDS011;6874;52.084;5.090;2022-09-01T14:30:29;196.37;;;190.27;;
13605;SDS011;6874;52.084;5.090;2022-09-01T14:32:56;197.13;;;191.10;;
13605;SDS011;6874;52.084;5.090;2022-09-01T14:35:23;212.67;;;206.13;;
13605;SDS011;6874;52.084;5.090;2022-09-01T14:37:50;203.27;;;197.07;;
13605;SDS011;6874;52.084;5.090;2022-09-01T14:40:17;200.60;;;194.50;;
13605;SDS011;6874;52.084;5.090;2022-09-01T14:42:45;202.63;;;196.47;;
13605;SDS011;6874;52.084;5.090;2022-09-01T14:45:13;212.57;;;206.17;;
13605;SDS011;6874;52.084;5.090;2022-09-01T14:47:42;210.63;;;204.23;;
13605;SDS011;6874;52.084;5.090;2022-09-01T14:50:08;233.07;;;226.03;;
13605;SDS011;6874;52.084;5.090;2022-09-01T14:52:34;221.83;;;215.17;;
13605;SDS011;6874;52.084;5.090;2022-09-01T14:55:01;222.43;;;215.73;;
13605;SDS011;6874;52.084;5.090;2022-09-01T14:57:27;232.27;;;225.33;;
13605;SDS011;6874;52.084;5.090;2022-09-01T14:59:53;227.57;;;220.77;;
13605;SDS011;6874;52.084;5.090;2022-09-01T15:02:18;230.57;;;223.67;;
13605;SDS011;6874;52.084;5.090;2022-09-01T15:04:44;267.83;;;259.80;;
13605;SDS011;6874;52.084;5.090;2022-09-01T15:07:09;287.73;;;279.00;;
13605;SDS011;6874;52.084;5.090;2022-09-01T15:09:37;287.07;;;278.33;;
13605;SDS011;6874;52.084;5.090;2022-09-01T15:12:02;290.83;;;282.00;;
13605;SDS011;6874;52.084;5.090;2022-09-01T15:14:28;291.37;;;282.47;;
13605;SDS011;6874;52.084;5.090;2022-09-01T15:16:55;296.27;;;287.23;;
13605;SDS011;6874;52.084;5.090;2022-09-01T15:19:21;276.90;;;268.50;;
13605;SDS011;6874;52.084;5.090;2022-09-01T15:21:46;283.57;;;274.97;;
13605;SDS011;6874;52.084;5.090;2022-09-01T15:24:12;288.00;;;279.23;;
13605;SDS011;6874;52.084;5.090;2022-09-01T15:26:38;281.87;;;273.27;;
13605;SDS011;6874;52.084;5.090;2022-09-01T15:29:08;243.07;;;235.67;;
13605;SDS011;6874;52.084;5.090;2022-09-01T15:31:38;233.07;;;226.00;;
13605;SDS011;6874;52.084;5.090;2022-09-01T15:34:05;216.63;;;209.93;;
13605;SDS011;6874;52.084;5.090;2022-09-01T15:36:33;240.63;;;233.33;;